Time;durP1;ratioP1;P1;durP2;ratioP2;P2;SDS_P1;SDS_P2;PMS_P1;PMS_P2;Temp;Humidity;BMP_temperature;BMP_pressure;BME280_temperature;BME280_humidity;BME280_pressure;Samples;Min_cycle;Max_cycle;Signal;HPM_P1;HPM_P2
2023/03/07 00:01:04;;;;;;;;;;;;;;;9.76;45.67;98540.03;4439974;32;32587;-62
2023/03/07 00:03:31;;;;;;;;;;;;;;;9.77;45.67;98535.50;4440321;32;33934;-64
2023/03/07 00:05:59;;;;;;;;;;;;;;;9.73;45.62;98544.81;4443340;32;34248;-63
2023/03/07 00:08:26;;;;;;;;;;;;;;;10.00;44.80;98544.94;4445280;32;34257;-64
2023/03/07 00:10:54;;;;;;;;;;;;;;;10.02;44.34;98531.47;4435854;32;34024;-63
2023/03/07 00:13:21;;;;;;;;;;;;;;;9.84;44.84;98542.00;4437395;32;34062;-63
2023/03/07 00:15:48;;;;;;;;;;;;;;;9.83;44.46;98542.12;4433195;32;35599;-63
2023/03/07 00:18:16;;;;;;;;;;;;;;;9.63;44.83;98544.78;4446532;32;33593;-64
2023/03/07 00:20:44;;;;;;;;;;;;;;;9.57;45.27;98551.53;4436524;32;33750;-66
2023/03/07 00:23:11;;;;;;;;;;;;;;;9.40;45.84;98552.16;4440346;32;35206;-63
2023/03/07 00:25:39;;;;;;;;;;;;;;;9.55;45.54;98542.78;4438249;32;33985;-63
2023/03/07 00:28:06;;;;;;;;;;;;;;;9.57;45.54;98551.53;4444054;32;31990;-64
2023/03/07 00:30:33;;;;;;;;;;;;;;;9.57;45.69;98553.34;4442337;32;33881;-65
2023/03/07 00:33:00;;;;;;;;;;;;;;;9.71;45.07;98558.28;4434533;32;34849;-65
2023/03/07 00:35:28;;;;;;;;;;;;;;;9.62;45.38;98558.25;4438351;32;34363;-65
2023/03/07 00:37:55;;;;;;;;;;;;;;;9.81;44.75;98558.28;4432566;32;33161;-66
2023/03/07 00:40:23;;;;;;;;;;;;;;;9.84;44.64;98549.16;4440756;32;34291;-64
2023/03/07 00:42:50;;;;;;;;;;;;;;;9.79;45.00;98552.22;4444985;32;33164;-65
2023/03/07 00:45:17;;;;;;;;;;;;;;;9.73;44.86;98548.31;4439598;32;32912;-65
2023/03/07 00:47:44;;;;;;;;;;;;;;;9.68;45.21;98547.88;4442292;32;33335;-64
2023/03/07 00:50:12;;;;;;;;;;;;;;;9.82;44.58;98545.78;4439530;32;34109;-64
2023/03/07 00:52:39;;;;;;;;;;;;;;;9.76;44.77;98549.88;4442644;32;33093;-62
2023/03/07 00:55:07;;;;;;;;;;;;;;;9.60;45.16;98541.53;4443455;32;33089;-64
2023/03/07 00:57:34;;;;;;;;;;;;;;;9.81;44.49;98534.25;4440899;32;33518;-62
2023/03/07 01:00:02;;;;;;;;;;;;;;;9.70;44.90;98539.72;4445505;32;35064;-64
2023/03/07 01:02:29;;;;;;;;;;;;;;;9.81;44.60;98539.59;4442950;32;35077;-64
2023/03/07 01:04:57;;;;;;;;;;;;;;;9.70;44.95;98532.56;4437687;32;33992;-65
2023/03/07 01:07:24;;;;;;;;;;;;;;;9.73;44.86;98528.78;4438113;32;33265;-63
2023/03/07 01:09:52;;;;;;;;;;;;;;;9.72;45.15;98535.06;4440872;32;33938;-64
2023/03/07 01:12:19;;;;;;;;;;;;;;;9.73;45.10;98540.28;4436845;32;33080;-63
2023/03/07 01:14:48;;;;;;;;;;;;;;;9.67;45.35;98532.84;4442673;32;34262;-61
2023/03/07 01:17:16;;;;;;;;;;;;;;;9.65;45.40;98528.59;4442324;32;33578;-62
2023/03/07 01:19:46;;;;;;;;;;;;;;;9.71;45.40;98517.38;4436546;32;33662;-64
2023/03/07 01:22:14;;;;;;;;;;;;;;;9.83;45.25;98512.75;4447365;32;34029;-62
2023/03/07 01:24:41;;;;;;;;;;;;;;;9.85;45.30;98522.28;4441769;32;33061;-63
2023/03/07 01:27:08;;;;;;;;;;;;;;;9.96;45.08;98521.31;4437621;32;33606;-61
2023/03/07 01:29:35;;;;;;;;;;;;;;;9.96;45.06;98522.16;4438409;32;33733;-61
2023/03/07 01:32:03;;;;;;;;;;;;;;;10.03;44.88;98527.78;4445043;32;34433;-62
2023/03/07 01:34:30;;;;;;;;;;;;;;;9.99;45.02;98529.06;4438150;32;34149;-63
2023/03/07 01:36:57;;;;;;;;;;;;;;;10.00;44.85;98525.41;4433194;32;33570;-62
2023/03/07 01:39:25;;;;;;;;;;;;;;;10.00;44.89;98522.72;4442632;32;33683;-66
2023/03/07 01:41:52;;;;;;;;;;;;;;;9.88;45.18;98524.69;4436569;32;33822;-61
2023/03/07 01:44:26;;;;;;;;;;;;;;;9.87;45.37;98527.50;4450064;32;33115;-62
2023/03/07 01:46:57;;;;;;;;;;;;;;;9.74;45.68;98514.41;4435637;32;33604;-62
2023/03/07 01:49:24;;;;;;;;;;;;;;;10.02;44.89;98513.59;4444839;32;32417;-63
2023/03/07 01:52:00;;;;;;;;;;;;;;;9.69;45.65;98509.47;4435715;32;34359;-63
2023/03/07 01:54:28;;;;;;;;;;;;;;;9.93;45.23;98514.44;4440225;32;32954;-62
2023/03/07 01:56:55;;;;;;;;;;;;;;;10.00;45.02;98504.00;4445821;32;33220;-63
2023/03/07 01:59:24;;;;;;;;;;;;;;;10.01;44.93;98506.53;4441214;32;33956;-62
2023/03/07 02:01:51;;;;;;;;;;;;;;;10.12;44.65;98500.22;4433127;32;33792;-65
2023/03/07 02:04:27;;;;;;;;;;;;;;;10.22;44.14;98502.88;4438187;32;34403;-62
2023/03/07 02:06:54;;;;;;;;;;;;;;;10.16;44.32;98500.75;4434290;32;33111;-63
2023/03/07 02:09:22;;;;;;;;;;;;;;;9.83;45.39;98491.37;4445823;32;32218;-66
2023/03/07 02:11:49;;;;;;;;;;;;;;;9.70;45.40;98494.31;4438566;32;34179;-65
2023/03/07 02:14:17;;;;;;;;;;;;;;;9.80;45.15;98495.16;4438623;32;34162;-62
2023/03/07 02:16:44;;;;;;;;;;;;;;;9.83;45.17;98488.69;4449945;32;33366;-62
2023/03/07 02:19:24;;;;;;;;;;;;;;;9.90;45.02;98489.81;4437518;32;34163;-64
2023/03/07 02:22:24;;;;;;;;;;;;;;;9.90;44.84;98489.81;4448880;32;34090;-64
2023/03/07 02:25:20;;;;;;;;;;;;;;;9.88;44.69;98481.91;4408533;32;33111;-62
2023/03/07 02:27:48;;;;;;;;;;;;;;;9.79;44.90;98497.00;4420560;32;34206;-63
2023/03/07 02:30:16;;;;;;;;;;;;;;;9.40;45.97;98496.06;4443854;32;32614;-62
2023/03/07 02:32:44;;;;;;;;;;;;;;;9.70;45.33;98496.97;4439864;32;35787;-63
2023/03/07 02:35:12;;;;;;;;;;;;;;;9.89;44.71;98496.16;4441319;32;33772;-62
2023/03/07 02:37:40;;;;;;;;;;;;;;;9.87;44.71;98496.28;4443261;32;32418;-67
2023/03/07 02:40:08;;;;;;;;;;;;;;;9.89;44.87;98499.66;4438089;32;32615;-63
2023/03/07 02:42:36;;;;;;;;;;;;;;;9.85;45.00;98502.75;4434191;32;35639;-63
2023/03/07 02:45:05;;;;;;;;;;;;;;;9.92;44.88;98504.72;4433876;32;34065;-64
2023/03/07 02:47:32;;;;;;;;;;;;;;;9.85;45.29;98503.56;4431481;32;34524;-62
2023/03/07 02:50:00;;;;;;;;;;;;;;;10.00;44.86;98496.84;4436169;32;32308;-64
2023/03/07 02:52:29;;;;;;;;;;;;;;;9.97;44.95;98494.44;4441744;32;34185;-64
2023/03/07 02:54:57;;;;;;;;;;;;;;;9.98;45.18;98498.81;4435658;32;34076;-64
2023/03/07 02:57:24;;;;;;;;;;;;;;;9.99;45.13;98499.66;4437277;32;31840;-64
2023/03/07 02:59:52;;;;;;;;;;;;;;;9.92;45.06;98499.37;4434647;32;34139;-63
2023/03/07 03:02:19;;;;;;;;;;;;;;;10.10;44.82;98493.31;4435197;32;34427;-63
2023/03/07 03:04:46;;;;;;;;;;;;;;;10.16;44.76;98501.59;4442231;32;34231;-65
2023/03/07 03:07:14;;;;;;;;;;;;;;;10.28;44.25;98501.50;4433526;32;33339;-63
2023/03/07 03:09:41;;;;;;;;;;;;;;;10.13;44.57;98501.06;4433497;32;34046;-62
2023/03/07 03:12:08;;;;;;;;;;;;;;;10.25;44.30;98494.56;4436800;32;35005;-63
2023/03/07 03:14:36;;;;;;;;;;;;;;;10.33;44.13;98492.03;4437056;32;35032;-64
2023/03/07 03:17:04;;;;;;;;;;;;;;;10.15;44.48;98486.56;4435984;32;33283;-63
2023/03/07 03:19:31;;;;;;;;;;;;;;;9.90;45.17;98495.16;4433028;32;34012;-63
2023/03/07 03:21:58;;;;;;;;;;;;;;;10.14;44.78;98500.06;4442885;32;34593;-62
2023/03/07 03:24:26;;;;;;;;;;;;;;;10.10;44.98;98498.66;4441547;32;33864;-62
2023/03/07 03:26:56;;;;;;;;;;;;;;;10.32;44.10;98498.38;4447313;32;33504;-63
2023/03/07 03:29:24;;;;;;;;;;;;;;;10.08;44.71;98497.94;4435200;32;34235;-63
2023/03/07 03:31:53;;;;;;;;;;;;;;;10.32;43.89;98495.72;4443375;32;33649;-62
2023/03/07 03:34:20;;;;;;;;;;;;;;;10.32;44.15;98487.69;4449564;32;33660;-66
2023/03/07 03:36:49;;;;;;;;;;;;;;;10.36;43.78;98489.06;4451224;32;33549;-64
2023/03/07 03:39:17;;;;;;;;;;;;;;;10.22;44.38;98486.84;4447513;32;34770;-65
2023/03/07 03:41:44;;;;;;;;;;;;;;;10.33;43.81;98481.34;4442482;32;34946;-63
2023/03/07 03:44:13;;;;;;;;;;;;;;;10.22;44.30;98481.47;4440674;32;32400;-66
2023/03/07 03:46:40;;;;;;;;;;;;;;;10.02;45.05;98483.34;4451665;32;33091;-66
2023/03/07 03:49:10;;;;;;;;;;;;;;;10.09;45.00;98484.44;4440162;32;34178;-63
2023/03/07 03:51:37;;;;;;;;;;;;;;;10.28;44.19;98482.78;4444333;32;34226;-62
2023/03/07 03:54:04;;;;;;;;;;;;;;;10.15;44.34;98475.88;4440299;32;34168;-63
2023/03/07 03:56:32;;;;;;;;;;;;;;;10.02;44.67;98480.66;4441669;32;32083;-64
2023/03/07 03:58:59;;;;;;;;;;;;;;;10.05;44.35;98485.72;4443736;32;33143;-64
2023/03/07 04:01:27;;;;;;;;;;;;;;;10.01;44.66;98487.81;4445405;32;34479;-66
2023/03/07 04:03:55;;;;;;;;;;;;;;;10.00;44.77;98487.97;4442932;32;33914;-63
2023/03/07 04:06:24;;;;;;;;;;;;;;;9.90;44.90;98481.78;4441207;32;34449;-64
2023/03/07 04:08:51;;;;;;;;;;;;;;;9.84;44.94;98480.53;4442823;32;33877;-64
2023/03/07 04:11:19;;;;;;;;;;;;;;;9.85;45.06;98482.19;4440408;32;32565;-64
2023/03/07 04:13:47;;;;;;;;;;;;;;;9.88;44.62;98481.06;4444549;32;34916;-64
2023/03/07 04:16:14;;;;;;;;;;;;;;;9.81;44.74;98478.13;4446157;32;33078;-65
2023/03/07 04:18:42;;;;;;;;;;;;;;;9.52;45.99;98481.63;4447937;32;35046;-65
2023/03/07 04:21:10;;;;;;;;;;;;;;;9.74;45.09;98490.38;4440952;32;34240;-65
2023/03/07 04:23:37;;;;;;;;;;;;;;;9.58;46.12;98493.59;4442119;32;33611;-66
2023/03/07 04:26:06;;;;;;;;;;;;;;;9.73;45.57;98494.88;4449069;32;33249;-64
2023/03/07 04:28:48;;;;;;;;;;;;;;;9.80;44.73;98489.81;4445396;32;34316;-63
2023/03/07 04:31:17;;;;;;;;;;;;;;;9.38;46.19;98497.22;4441424;32;33739;-64
2023/03/07 04:33:44;;;;;;;;;;;;;;;9.35;46.70;98494.81;4442914;32;35213;-65
2023/03/07 04:36:12;;;;;;;;;;;;;;;9.69;45.92;98498.78;4444272;32;33146;-64
2023/03/07 04:38:40;;;;;;;;;;;;;;;9.82;45.18;98505.69;4442791;32;34315;-63
2023/03/07 04:41:17;;;;;;;;;;;;;;;9.68;45.41;98507.78;4438951;32;34250;-65
2023/03/07 04:43:45;;;;;;;;;;;;;;;9.85;44.83;98508.09;4441481;32;34326;-63
2023/03/07 04:46:14;;;;;;;;;;;;;;;9.82;44.88;98516.38;4441368;32;34274;-62
2023/03/07 04:48:41;;;;;;;;;;;;;;;9.84;44.90;98506.41;4439592;32;35173;-63
2023/03/07 04:51:09;;;;;;;;;;;;;;;9.85;45.05;98513.44;4442555;32;34107;-65
2023/03/07 04:53:36;;;;;;;;;;;;;;;9.87;45.07;98514.16;4439532;32;34403;-66
2023/03/07 04:56:04;;;;;;;;;;;;;;;9.85;45.06;98508.09;4449565;32;32000;-63
2023/03/07 04:58:32;;;;;;;;;;;;;;;9.86;44.98;98510.62;4441691;32;33591;-65
2023/03/07 05:01:00;;;;;;;;;;;;;;;9.84;45.05;98509.91;4447525;32;34623;-65
2023/03/07 05:03:27;;;;;;;;;;;;;;;9.84;45.30;98507.25;4450526;32;33793;-63
2023/03/07 05:05:55;;;;;;;;;;;;;;;9.95;45.08;98508.94;4446656;32;31870;-68
2023/03/07 05:08:22;;;;;;;;;;;;;;;9.99;45.09;98511.19;4440347;32;34561;-63
2023/03/07 05:10:50;;;;;;;;;;;;;;;10.06;44.76;98502.59;4448530;32;34332;-63
2023/03/07 05:13:18;;;;;;;;;;;;;;;10.02;44.92;98508.25;4442221;32;34299;-63
2023/03/07 05:15:50;;;;;;;;;;;;;;;10.03;44.85;98507.25;4444236;32;32024;-63
2023/03/07 05:18:19;;;;;;;;;;;;;;;10.10;44.54;98506.69;4436163;32;34244;-64
2023/03/07 05:20:46;;;;;;;;;;;;;;;9.89;45.42;98512.19;4444489;32;33818;-63
2023/03/07 05:23:14;;;;;;;;;;;;;;;9.80;45.70;98512.03;4436826;32;32699;-63
2023/03/07 05:25:41;;;;;;;;;;;;;;;9.75;46.02;98519.59;4450075;32;34361;-63
2023/03/07 05:28:09;;;;;;;;;;;;;;;10.03;45.05;98515.25;4446844;32;33927;-65
2023/03/07 05:30:37;;;;;;;;;;;;;;;9.95;45.19;98514.28;4441609;32;34168;-62
2023/03/07 05:33:04;;;;;;;;;;;;;;;9.99;45.00;98516.53;4443897;32;34187;-62
2023/03/07 05:35:31;;;;;;;;;;;;;;;10.06;44.27;98522.16;4448675;32;34318;-65
2023/03/07 05:37:59;;;;;;;;;;;;;;;10.00;44.63;98515.53;4442730;32;34187;-61
2023/03/07 05:40:27;;;;;;;;;;;;;;;9.87;45.48;98516.81;4447582;32;32852;-63
2023/03/07 05:42:54;;;;;;;;;;;;;;;9.99;44.89;98515.69;4437989;32;34077;-66
2023/03/07 05:45:22;;;;;;;;;;;;;;;9.82;45.43;98514.53;4437814;32;33365;-64
2023/03/07 05:47:49;;;;;;;;;;;;;;;9.84;45.72;98523.28;4446453;32;32731;-63
2023/03/07 05:50:18;;;;;;;;;;;;;;;10.12;44.41;98516.25;4444290;32;34077;-66
2023/03/07 05:52:45;;;;;;;;;;;;;;;10.12;44.22;98520.75;4437667;32;34906;-64
2023/03/07 05:55:12;;;;;;;;;;;;;;;9.97;44.68;98526.50;4442377;32;33466;-63
2023/03/07 05:57:39;;;;;;;;;;;;;;;9.73;45.30;98526.09;4440921;32;33648;-63
2023/03/07 06:00:07;;;;;;;;;;;;;;;9.75;45.45;98530.28;4441548;32;34610;-65
2023/03/07 06:02:41;;;;;;;;;;;;;;;9.49;45.81;98527.31;4444178;32;33938;-63
2023/03/07 06:05:09;;;;;;;;;;;;;;;9.56;46.00;98533.78;4447911;32;33041;-63
2023/03/07 06:07:36;;;;;;;;;;;;;;;9.66;45.78;98530.28;4438958;32;34290;-66
2023/03/07 06:10:03;;;;;;;;;;;;;;;9.67;46.37;98534.66;4443708;32;34165;-63
2023/03/07 06:12:31;;;;;;;;;;;;;;;9.88;45.26;98534.53;4439054;32;33816;-64
2023/03/07 06:14:58;;;;;;;;;;;;;;;9.95;44.92;98539.19;4444621;32;33031;-62
2023/03/07 06:17:25;;;;;;;;;;;;;;;9.86;45.70;98548.03;4450612;32;34033;-65
2023/03/07 06:19:53;;;;;;;;;;;;;;;9.94;45.69;98537.47;4437983;32;34264;-63
2023/03/07 06:22:20;;;;;;;;;;;;;;;10.04;45.03;98546.34;4435997;32;34409;-65
2023/03/07 06:24:47;;;;;;;;;;;;;;;9.87;45.74;98552.41;4443311;32;33849;-64
2023/03/07 06:27:15;;;;;;;;;;;;;;;10.25;44.70;98553.41;4451403;32;34316;-63
2023/03/07 06:29:42;;;;;;;;;;;;;;;10.32;44.40;98551.03;4441335;32;34221;-63
2023/03/07 06:32:09;;;;;;;;;;;;;;;10.29;44.48;98546.81;4443638;32;34351;-62
2023/03/07 06:34:37;;;;;;;;;;;;;;;10.32;44.77;98543.00;4446064;32;33049;-65
2023/03/07 06:37:04;;;;;;;;;;;;;;;10.33;44.81;98550.88;4446379;32;33973;-62
2023/03/07 06:39:31;;;;;;;;;;;;;;;10.14;45.01;98564.22;4439543;32;34185;-62
2023/03/07 06:41:59;;;;;;;;;;;;;;;10.25;44.41;98554.25;4441630;32;34205;-63
2023/03/07 06:44:26;;;;;;;;;;;;;;;10.20;44.99;98561.00;4436645;32;33312;-62
2023/03/07 06:46:54;;;;;;;;;;;;;;;10.18;45.33;98562.97;4442744;32;32590;-62
2023/03/07 06:49:21;;;;;;;;;;;;;;;10.37;44.55;98560.31;4437837;32;35391;-63
2023/03/07 06:51:49;;;;;;;;;;;;;;;10.51;44.14;98558.19;4435487;32;35105;-61
2023/03/07 06:54:16;;;;;;;;;;;;;;;10.51;44.35;98560.87;4438653;32;33131;-62
2023/03/07 06:56:44;;;;;;;;;;;;;;;10.52;44.38;98566.06;4444548;32;33668;-62
2023/03/07 06:59:12;;;;;;;;;;;;;;;10.48;45.04;98564.66;4441660;32;34329;-61
2023/03/07 07:01:39;;;;;;;;;;;;;;;10.84;43.92;98557.69;4443040;32;34244;-62
2023/03/07 07:04:06;;;;;;;;;;;;;;;10.82;44.34;98559.69;4440345;32;33487;-64
2023/03/07 07:06:34;;;;;;;;;;;;;;;10.88;44.74;98560.91;4437557;32;34048;-63
2023/03/07 07:09:01;;;;;;;;;;;;;;;11.07;43.99;98562.69;4440172;32;32487;-62
2023/03/07 07:11:29;;;;;;;;;;;;;;;11.11;43.89;98550.72;4443584;32;33855;-61
2023/03/07 07:13:57;;;;;;;;;;;;;;;11.02;44.35;98559.63;4448929;32;33683;-63
2023/03/07 07:16:24;;;;;;;;;;;;;;;11.17;44.11;98558.13;4443512;32;33697;-66
2023/03/07 07:18:51;;;;;;;;;;;;;;;11.32;43.93;98559.34;4444790;32;34427;-63
2023/03/07 07:21:19;;;;;;;;;;;;;;;11.27;44.15;98556.28;4439916;32;33049;-63
2023/03/07 07:23:46;;;;;;;;;;;;;;;11.56;43.22;98566.00;4441926;32;34050;-66
2023/03/07 07:26:14;;;;;;;;;;;;;;;11.55;43.14;98566.97;4450838;32;35215;-64
2023/03/07 07:28:41;;;;;;;;;;;;;;;11.51;43.34;98569.13;4440277;32;34230;-63
2023/03/07 07:31:08;;;;;;;;;;;;;;;11.62;42.75;98570.72;4438398;32;33934;-63
2023/03/07 07:33:36;;;;;;;;;;;;;;;11.63;42.81;98572.44;4439370;32;34369;-66
2023/03/07 07:36:03;;;;;;;;;;;;;;;11.80;42.56;98574.31;4441039;32;33900;-67
2023/03/07 07:38:33;;;;;;;;;;;;;;;11.79;42.99;98567.25;4442487;32;34570;-63
2023/03/07 07:41:01;;;;;;;;;;;;;;;11.95;42.51;98571.16;4443077;32;33849;-64
2023/03/07 07:43:28;;;;;;;;;;;;;;;11.86;42.91;98575.56;4448373;32;33294;-63
2023/03/07 07:45:56;;;;;;;;;;;;;;;11.93;42.94;98573.13;4437936;32;33879;-63
2023/03/07 07:48:24;;;;;;;;;;;;;;;12.05;42.74;98577.28;4442730;32;35429;-66
2023/03/07 07:50:52;;;;;;;;;;;;;;;12.12;42.47;98581.03;4450777;32;34348;-64
2023/03/07 07:53:20;;;;;;;;;;;;;;;12.05;43.17;98569.22;4451991;32;33129;-63
2023/03/07 07:55:47;;;;;;;;;;;;;;;12.15;42.96;98571.84;4438575;32;33889;-63
2023/03/07 07:58:15;;;;;;;;;;;;;;;12.37;42.54;98566.00;4439057;32;33940;-63
2023/03/07 08:00:44;;;;;;;;;;;;;;;12.50;42.14;98571.81;4436688;32;34350;-64
2023/03/07 08:03:11;;;;;;;;;;;;;;;12.26;42.74;98567.09;4442263;32;33508;-64
2023/03/07 08:05:42;;;;;;;;;;;;;;;12.47;42.56;98572.12;4449560;32;32574;-63
2023/03/07 08:08:10;;;;;;;;;;;;;;;12.57;41.39;98564.81;4438794;32;34443;-63
2023/03/07 08:10:41;;;;;;;;;;;;;;;12.59;41.25;98570.03;4441520;32;35267;-63
2023/03/07 08:13:12;;;;;;;;;;;;;;;12.61;41.43;98568.03;4443970;32;33887;-66
2023/03/07 08:15:40;;;;;;;;;;;;;;;12.68;41.60;98565.56;4442183;32;34126;-63
2023/03/07 08:18:07;;;;;;;;;;;;;;;12.62;42.31;98567.06;4438133;32;35131;-65
2023/03/07 08:20:35;;;;;;;;;;;;;;;12.83;41.52;98567.50;4450007;32;32958;-64
2023/03/07 08:23:03;;;;;;;;;;;;;;;12.74;39.67;98567.63;4448719;32;32099;-63
2023/03/07 08:25:30;;;;;;;;;;;;;;;12.65;39.00;98569.41;4443621;32;32285;-63
2023/03/07 08:27:57;;;;;;;;;;;;;;;12.75;38.37;98567.47;4448724;32;33241;-64
2023/03/07 08:30:25;;;;;;;;;;;;;;;12.99;35.67;98571.31;4453068;32;34421;-64
2023/03/07 08:32:53;;;;;;;;;;;;;;;13.00;34.77;98573.84;4443257;32;34421;-65
2023/03/07 08:35:20;;;;;;;;;;;;;;;13.03;35.50;98567.31;4440188;32;35123;-63
2023/03/07 08:37:48;;;;;;;;;;;;;;;12.03;34.76;98576.56;4439215;32;34971;-63
2023/03/07 08:40:15;;;;;;;;;;;;;;;12.60;34.12;98577.09;4437746;32;33933;-63
2023/03/07 08:42:42;;;;;;;;;;;;;;;12.96;34.67;98577.00;4443144;32;34420;-63
2023/03/07 08:45:10;;;;;;;;;;;;;;;13.13;33.37;98573.44;4439630;32;33903;-65
2023/03/07 08:47:37;;;;;;;;;;;;;;;12.92;32.91;98579.16;4451606;32;33866;-64
2023/03/07 08:50:04;;;;;;;;;;;;;;;13.03;32.56;98581.59;4447370;32;34369;-65
2023/03/07 08:52:31;;;;;;;;;;;;;;;12.71;33.03;98579.53;4440406;32;34638;-64
2023/03/07 08:54:59;;;;;;;;;;;;;;;12.51;33.61;98581.53;4437875;32;34427;-63
2023/03/07 08:57:26;;;;;;;;;;;;;;;12.50;33.91;98582.56;4437295;32;35364;-64
2023/03/07 08:59:53;;;;;;;;;;;;;;;12.20;33.53;98581.13;4446346;32;34438;-66
2023/03/07 09:02:20;;;;;;;;;;;;;;;12.00;34.15;98591.13;4438160;32;33772;-65
2023/03/07 09:04:48;;;;;;;;;;;;;;;12.19;33.47;98583.94;4443433;32;35245;-66
2023/03/07 09:07:15;;;;;;;;;;;;;;;12.30;33.59;98581.03;4435605;32;33995;-63
2023/03/07 09:09:42;;;;;;;;;;;;;;;12.54;32.60;98586.59;4448960;32;34525;-64
2023/03/07 09:12:09;;;;;;;;;;;;;;;12.78;32.91;98582.44;4439929;32;34408;-65
2023/03/07 09:14:37;;;;;;;;;;;;;;;12.69;32.93;98581.53;4416866;32;792895;-63
2023/03/07 09:17:04;;;;;;;;;;;;;;;12.42;33.21;98589.69;4449497;32;35279;-63
2023/03/07 09:19:31;;;;;;;;;;;;;;;12.55;33.55;98587.44;4445753;32;32923;-67
2023/03/07 09:21:59;;;;;;;;;;;;;;;12.19;33.76;98592.81;4440333;32;33018;-63
2023/03/07 09:24:26;;;;;;;;;;;;;;;11.27;35.08;98591.09;4443089;32;35029;-63
2023/03/07 09:26:53;;;;;;;;;;;;;;;11.13;35.76;98588.88;4444904;32;35101;-63
2023/03/07 09:29:20;;;;;;;;;;;;;;;11.65;34.94;98582.03;4440317;32;32940;-63
2023/03/07 09:31:47;;;;;;;;;;;;;;;11.14;35.19;98580.72;4445653;32;31662;-65
2023/03/07 09:34:15;;;;;;;;;;;;;;;10.25;36.78;98586.31;4440376;32;35217;-63
2023/03/07 09:36:42;;;;;;;;;;;;;;;11.06;36.81;98588.63;4442806;32;34699;-63
2023/03/07 09:39:13;;;;;;;;;;;;;;;11.30;37.23;98585.44;4448903;32;34168;-63
2023/03/07 09:41:53;;;;;;;;;;;;;;;10.73;38.37;98588.16;4437751;32;35016;-63
2023/03/07 09:44:23;;;;;;;;;;;;;;;11.34;36.88;98580.63;4445533;32;35249;-62
2023/03/07 09:47:09;;;;;;;;;;;;;;;12.01;36.43;98586.62;4433632;32;34114;-64
2023/03/07 09:49:43;;;;;;;;;;;;;;;11.39;34.96;98581.84;4442459;32;34040;-66
2023/03/07 09:52:15;;;;;;;;;;;;;;;11.92;33.98;98579.50;4437727;32;33505;-63
2023/03/07 09:54:45;;;;;;;;;;;;;;;10.92;34.94;98583.75;4437147;32;35359;-63
2023/03/07 09:57:13;;;;;;;;;;;;;;;10.89;35.07;98573.31;4442241;32;32958;-63
2023/03/07 09:59:45;;;;;;;;;;;;;;;10.42;36.12;98582.13;4438025;32;35225;-66
2023/03/07 10:02:21;;;;;;;;;;;;;;;10.17;37.03;98585.34;4438182;32;34507;-66
2023/03/07 10:04:49;;;;;;;;;;;;;;;9.90;37.21;98578.84;4439790;32;34206;-63
2023/03/07 10:07:16;;;;;;;;;;;;;;;10.09;37.09;98579.84;4438298;32;32707;-67
2023/03/07 10:09:43;;;;;;;;;;;;;;;10.31;36.17;98573.41;4443270;32;34829;-63
2023/03/07 10:12:17;;;;;;;;;;;;;;;9.62;37.57;98576.97;4440804;32;32103;-66
2023/03/07 10:14:51;;;;;;;;;;;;;;;10.02;37.42;98576.91;4452294;32;34066;-64
2023/03/07 10:17:25;;;;;;;;;;;;;;;10.16;35.46;98578.31;4435055;32;32684;-65
2023/03/07 10:19:53;;;;;;;;;;;;;;;10.91;35.14;98579.34;4444948;32;33992;-64
2023/03/07 10:22:33;;;;;;;;;;;;;;;10.63;35.51;98583.81;4448281;32;32152;-65
2023/03/07 10:25:03;;;;;;;;;;;;;;;11.16;33.86;98583.22;4445233;32;34126;-67
2023/03/07 10:27:30;;;;;;;;;;;;;;;12.19;33.62;98582.09;4441277;32;33491;-65
2023/03/07 10:29:58;;;;;;;;;;;;;;;13.14;31.99;98579.62;4442634;32;35875;-65
2023/03/07 10:32:46;;;;;;;;;;;;;;;13.50;31.49;98574.97;4451269;32;33494;-64
2023/03/07 10:35:13;;;;;;;;;;;;;;;12.26;33.08;98572.47;4450712;32;34324;-64
2023/03/07 10:37:49;;;;;;;;;;;;;;;11.83;33.61;98582.03;4447241;32;34318;-64
2023/03/07 10:40:23;;;;;;;;;;;;;;;12.89;32.39;98575.94;4448167;32;33818;-64
2023/03/07 10:42:51;;;;;;;;;;;;;;;12.70;32.64;98567.09;4450020;32;32082;-64
2023/03/07 10:45:18;;;;;;;;;;;;;;;12.93;33.16;98555.84;4443735;32;34960;-65
2023/03/07 10:47:45;;;;;;;;;;;;;;;13.32;32.74;98555.41;4440548;32;35472;-65
2023/03/07 10:50:28;;;;;;;;;;;;;;;12.12;33.60;98555.03;4449703;32;34147;-68
2023/03/07 10:52:59;;;;;;;;;;;;;;;12.85;33.37;98558.47;4449252;32;34292;-65
2023/03/07 10:55:29;;;;;;;;;;;;;;;13.15;33.18;98554.44;4453500;32;32823;-65
2023/03/07 10:58:15;;;;;;;;;;;;;;;12.61;33.80;98551.09;4445874;32;34375;-65
2023/03/07 11:00:45;;;;;;;;;;;;;;;11.23;37.56;98544.16;4447382;32;33124;-66
2023/03/07 11:03:20;;;;;;;;;;;;;;;10.21;40.17;98547.50;4445611;32;33076;-64
2023/03/07 11:05:48;;;;;;;;;;;;;;;11.10;38.86;98543.66;4446715;32;34890;-65
2023/03/07 11:08:19;;;;;;;;;;;;;;;10.53;39.78;98543.69;4441308;32;33316;-64
2023/03/07 11:10:47;;;;;;;;;;;;;;;11.06;38.92;98542.25;4451244;32;34104;-64
2023/03/07 11:13:18;;;;;;;;;;;;;;;10.46;40.41;98532.72;4448429;32;34418;-63
2023/03/07 11:15:45;;;;;;;;;;;;;;;10.57;40.79;98538.91;4443620;32;35205;-65
2023/03/07 11:18:25;;;;;;;;;;;;;;;9.78;41.64;98540.72;4443419;32;33829;-64
2023/03/07 11:20:52;;;;;;;;;;;;;;;9.21;43.19;98533.41;4451448;32;34307;-64
2023/03/07 11:23:29;;;;;;;;;;;;;;;10.86;40.76;98512.06;4439082;32;33566;-63
2023/03/07 11:26:13;;;;;;;;;;;;;;;10.28;42.14;98515.72;4443258;32;32896;-64
2023/03/07 11:28:40;;;;;;;;;;;;;;;9.89;44.60;98515.69;4444646;32;33898;-64
2023/03/07 11:31:19;;;;;;;;;;;;;;;9.71;45.79;98510.19;4441836;32;35094;-63
2023/03/07 11:34:00;;;;;;;;;;;;;;;9.32;47.59;98499.44;4438647;32;33327;-62
2023/03/07 11:36:31;;;;;;;;;;;;;;;9.27;48.29;98499.00;4439655;32;35103;-64
2023/03/07 11:39:02;;;;;;;;;;;;;;;9.20;49.03;98497.88;4442665;32;35202;-63
2023/03/07 11:41:30;;;;;;;;;;;;;;;8.60;49.64;98491.59;4442333;32;34302;-64
2023/03/07 11:43:58;;;;;;;;;;;;;;;8.96;48.94;98498.22;4439765;32;33339;-63
2023/03/07 11:46:25;;;;;;;;;;;;;;;8.71;48.82;98490.69;4438857;32;34212;-65
2023/03/07 11:49:11;;;;;;;;;;;;;;;8.69;49.04;98501.47;4445763;32;34259;-64
2023/03/07 11:52:04;;;;;;;;;;;;;;;8.65;49.06;98494.72;4449461;32;35382;-63
2023/03/07 11:54:38;;;;;;;;;;;;;;;9.15;48.11;98499.25;4440938;32;33623;-61
2023/03/07 11:57:28;;;;;;;;;;;;;;;8.13;50.61;98504.47;4451577;32;33986;-63
2023/03/07 11:59:55;;;;;;;;;;;;;;;7.82;52.24;98498.19;4413723;32;33962;-63
2023/03/07 12:02:41;;;;;;;;;;;;;;;8.02;50.81;98494.69;4440463;32;32885;-63
2023/03/07 12:05:20;;;;;;;;;;;;;;;8.59;50.06;98498.75;4438292;32;34487;-62
2023/03/07 12:08:01;;;;;;;;;;;;;;;8.05;48.61;98493.59;4445758;32;33962;-62
2023/03/07 12:10:29;;;;;;;;;;;;;;;7.74;49.19;98495.31;4438723;32;35730;-61
2023/03/07 12:13:15;;;;;;;;;;;;;;;8.12;48.05;98479.66;4446099;32;35483;-64
2023/03/07 12:16:01;;;;;;;;;;;;;;;7.88;48.16;98481.72;4441750;32;34705;-64
2023/03/07 12:18:52;;;;;;;;;;;;;;;7.92;48.87;98478.66;4450499;32;35245;-61
2023/03/07 12:21:19;;;;;;;;;;;;;;;7.95;49.50;98480.22;4432202;32;34376;-63
2023/03/07 12:23:55;;;;;;;;;;;;;;;7.71;50.34;98477.78;4447536;32;34154;-61
2023/03/07 12:26:24;;;;;;;;;;;;;;;8.26;49.48;98470.47;4439130;32;33437;-64
2023/03/07 12:28:53;;;;;;;;;;;;;;;8.48;49.61;98474.84;4445117;32;34551;-64
2023/03/07 12:31:24;;;;;;;;;;;;;;;8.25;49.68;98468.78;4439841;32;34351;-64
2023/03/07 12:34:06;;;;;;;;;;;;;;;8.06;49.34;98463.34;4445404;32;34182;-64
2023/03/07 12:36:53;;;;;;;;;;;;;;;8.11;48.63;98469.94;4445975;32;33281;-63
2023/03/07 12:39:31;;;;;;;;;;;;;;;8.52;48.38;98470.94;4441144;32;32702;-62
2023/03/07 12:42:03;;;;;;;;;;;;;;;7.97;49.92;98464.97;4436053;32;34146;-62
2023/03/07 12:44:41;;;;;;;;;;;;;;;8.48;48.90;98464.19;4440726;32;33896;-62
2023/03/07 12:47:24;;;;;;;;;;;;;;;8.65;48.58;98467.19;4438177;32;33442;-62
2023/03/07 12:50:01;;;;;;;;;;;;;;;7.70;50.06;98462.75;4440770;32;33885;-64
2023/03/07 12:52:30;;;;;;;;;;;;;;;7.91;50.12;98470.78;4449562;32;34634;-62
2023/03/07 12:55:03;;;;;;;;;;;;;;;7.33;51.89;98478.28;4442106;32;34035;-60
2023/03/07 12:57:34;;;;;;;;;;;;;;;7.48;51.82;98469.06;4443851;32;33485;-65
2023/03/07 13:00:05;;;;;;;;;;;;;;;8.06;50.90;98458.84;4440837;32;35203;-64
2023/03/07 13:02:33;;;;;;;;;;;;;;;8.62;49.65;98463.81;4442126;32;34722;-64
2023/03/07 13:05:01;;;;;;;;;;;;;;;7.73;51.60;98467.84;4450243;32;34119;-64